Lynchburg, Virginia
Current Conditions -  °F | °C
As of 11:05 AM on Monday 22 Dec 2014 (Local Time) from KLYH Reporting Station
Light Rain Light Rain  
Wind Chill: 21°   Ceiling: 700
Heat Index: 32°   Visibility: 1.5mi
Dew Point: 31°   Wind: 16mph
Humidity: 96%   Direction: 40°NE
Pressure: 30.2"   Gusts: NA
Location:  37.4°N, 79.15°W
Report Text: KLYH 221605Z 04014KT 1 1/2SM -RA BR BKN007 OVC013 00/M01 A3020 RMK AO2 CIG 005V010 P0000 T00001006
Loading
Personal Weather Stations






























Interactive Weather Map New forecast layout! Learn more

10-Day Weather Forecast

Advertisements
Track Severe Weather on mobile